Yucca Valley, CA

3:32 PM PDT on May 28, 2015 (GMT -0700)
Western Hills Estates | | Change Station
CLOSE
Current Station
Personal Weather Station
Location: Yucca Valley, CA
Elevation: 3924 ft
Nearby Weather Stations

Elev 3924 ft 34.15 °N, 116.43 °W | Updated 13 seconds ago

Clear
Clear
83.4 °F
Feels Like 81 °F
N
14.0
Wind Variable Wind from WSW
Gusts 22.0 mph

Today
High -- | Low -- °F
--% Chance of Precip.
Yesterday
High -- | Low -- °F
Precip. -- in
5:36 AM 7:49 PM
Waxing Gibbous, 79% visible
Pressure 29.85 in
Visibility 10.0 miles
Clouds Scattered Clouds 18000 ft
Heat Index 81 °F
Dew Point 36 °F
Humidity 18%
Rainfall 0.00 in
Snow Depth Not available.
UV 8 out of 12
Pollen 5.10 out of 12
Air Quality Not available.
Flu Activity Sporadic
METAR KNXP 282156Z 15006KT 10SM SCT180 33/M02 A2996 RMK AO2 SLP108 T03331017

More Conditions Fewer Conditions

Pressure 29.85 in
Visibility 10.0 miles
Clouds Scattered Clouds 18000 ft
Heat Index 81 °F
Dew Point 36 °F
Humidity 18%
Rainfall 0.00 in
Snow Depth Not available.
UV 8 out of 12
Pollen 5.10 out of 12
Air Quality Not available.
Flu Activity Sporadic
METAR KNXP 282156Z 15006KT 10SM SCT180 33/M02 A2996 RMK AO2 SLP108 T03331017

More Conditions Fewer Conditions

10-Day Weather Forecast

Almanac

Astronomy

May. 28, 2015 Rise Set
Actual Time
Civil Twilight
Nautical Twilight
Astronomical Twilight
Moon
Length of Visible Light
Length of Day
Tomorrow will be .
, % of the Moon is Illuminated

Today's Extremes

State Highs State Lows

Community

WunderPhotos

Upload Photos

1,825,087 photos uploaded!

WunderBlogs® & News

Nearby

Air Quality

  Air Quality AQ Index Pollutant
Not available.

Snow Depth

Station Depth Elevation

Earthquake Activity

City Distance Mag. Time & Date
Minimum magnitude displayed is 2.5.

Coastal Water Temperatures

Place Temperature

Stations

Nearby Weather Stations

Station Location Temp. Windchill Dew Point Humidity Wind Precip. Elev Updated Type